createdAt,value
2019-05-15T00:00:25.230Z,9.18
2019-05-15T00:01:19.077Z,9.09
2019-05-15T00:02:38.686Z,9.06
2019-05-15T00:03:49.297Z,9.04
2019-05-15T00:04:54.135Z,9.02
2019-05-15T00:05:49.313Z,8.99
2019-05-15T00:07:01.931Z,9.01
2019-05-15T00:08:18.306Z,9.01
2019-05-15T00:09:08.699Z,8.99
2019-05-15T00:10:08.622Z,8.97
2019-05-15T00:11:19.013Z,9.05
2019-05-15T00:12:08.623Z,9.06
2019-05-15T00:13:30.540Z,9.06
2019-05-15T00:14:35.481Z,9.15
2019-05-15T00:15:45.403Z,9.18
2019-05-15T00:16:38.557Z,9.15
2019-05-15T00:17:48.322Z,9.24
2019-05-15T00:19:05.188Z,9.18
2019-05-15T00:19:58.090Z,9.20
2019-05-15T00:21:15.028Z,9.24
2019-05-15T00:21:58.413Z,9.24
2019-05-15T00:23:13.918Z,9.30
2019-05-15T00:24:05.021Z,9.27
2019-05-15T00:25:18.756Z,9.30
2019-05-15T00:26:38.743Z,9.35
2019-05-15T00:27:30.739Z,9.31
2019-05-15T00:29:08.527Z,9.30
2019-05-15T00:29:45.603Z,9.27
2019-05-15T00:30:42.842Z,9.20
2019-05-15T00:32:02.412Z,9.12
2019-05-15T00:32:58.805Z,9.10
2019-05-15T00:34:05.296Z,9.13
2019-05-15T00:35:13.191Z,9.01
2019-05-15T00:36:19.133Z,9.01
2019-05-15T00:37:18.397Z,8.91
2019-05-15T00:38:48.396Z,8.94
2019-05-15T00:39:40.961Z,8.81
2019-05-15T00:40:44.962Z,8.83
2019-05-15T00:41:48.357Z,8.72
2019-05-15T00:42:48.719Z,8.69
2019-05-15T00:43:59.930Z,8.73
2019-05-15T00:44:53.796Z,8.65
2019-05-15T00:46:13.675Z,8.76
2019-05-15T00:47:10.353Z,8.78
2019-05-15T00:48:18.262Z,8.69
2019-05-15T00:49:32.836Z,8.65
2019-05-15T00:50:19.429Z,8.66
2019-05-15T00:51:33.873Z,8.57
2019-05-15T00:52:28.228Z,8.53
2019-05-15T00:53:48.146Z,8.51
2019-05-15T00:54:48.327Z,8.47
2019-05-15T00:55:50.086Z,8.50
2019-05-15T00:56:44.455Z,8.51
2019-05-15T00:58:10.572Z,8.50
2019-05-15T00:59:04.948Z,8.45
2019-05-15T01:00:18.654Z,8.51
2019-05-15T01:01:13.258Z,8.58
2019-05-15T01:02:19.918Z,8.58
2019-05-15T01:03:34.671Z,8.55
2019-05-15T01:04:38.909Z,8.62
2019-05-15T01:05:40.524Z,8.62
2019-05-15T01:06:52.882Z,8.66
2019-05-15T01:07:49.549Z,8.66
2019-05-15T01:08:54.777Z,8.62
2019-05-15T01:10:02.670Z,8.65
2019-05-15T01:11:08.879Z,8.57
2019-05-15T01:12:15.083Z,8.44
2019-05-15T01:13:18.912Z,8.45
2019-05-15T01:14:23.074Z,8.40
2019-05-15T01:15:32.503Z,8.33
2019-05-15T01:16:32.824Z,8.29
2019-05-15T01:17:32.833Z,8.29
2019-05-15T01:18:53.521Z,8.22
2019-05-15T01:19:50.655Z,8.17
2019-05-15T01:20:53.938Z,8.18
2019-05-15T01:21:58.617Z,8.20
2019-05-15T01:22:59.194Z,8.21
2019-05-15T01:24:08.815Z,8.22
2019-05-15T01:25:14.752Z,8.30
2019-05-15T01:26:20.296Z,8.32
2019-05-15T01:27:30.538Z,8.28
2019-05-15T01:28:35.663Z,8.30
2019-05-15T01:29:40.590Z,8.37
2019-05-15T01:30:41.207Z,8.44
2019-05-15T01:31:48.609Z,8.42
2019-05-15T01:32:49.924Z,8.44
2019-05-15T01:33:54.846Z,8.45
2019-05-15T01:35:09.542Z,8.37
2019-05-15T01:36:05.100Z,8.45
2019-05-15T01:37:21.697Z,8.42
2019-05-15T01:38:18.952Z,8.37
2019-05-15T01:39:21.919Z,8.40
2019-05-15T01:40:32.370Z,8.29
2019-05-15T01:41:39.642Z,8.18
2019-05-15T01:42:38.725Z,8.20
2019-05-15T01:43:52.048Z,8.15
2019-05-15T01:45:01.581Z,8.20
2019-05-15T01:45:59.334Z,8.21
2019-05-15T01:47:01.898Z,8.15
2019-05-15T01:48:14.406Z,8.14
2019-05-15T01:49:13.075Z,8.14
2019-05-15T01:50:14.336Z,8.20
2019-05-15T01:51:32.037Z,8.12
2019-05-15T01:52:28.078Z,8.14
2019-05-15T01:53:38.536Z,8.18
2019-05-15T01:54:38.346Z,8.14
2019-05-15T01:55:48.271Z,8.12
2019-05-15T01:56:58.686Z,8.17
2019-05-15T01:57:58.095Z,8.14
2019-05-15T01:59:03.525Z,8.17
2019-05-15T02:00:08.655Z,8.20
2019-05-15T02:01:04.559Z,8.18
2019-05-15T02:02:27.972Z,8.15
2019-05-15T02:03:18.547Z,8.14
2019-05-15T02:04:28.899Z,8.03
2019-05-15T02:05:36.121Z,8.02
2019-05-15T02:06:43.399Z,8.03
2019-05-15T02:07:47.839Z,8.02
2019-05-15T02:08:54.078Z,7.97
2019-05-15T02:09:52.838Z,7.99
2019-05-15T02:10:59.072Z,7.97
2019-05-15T02:12:12.831Z,8.03
2019-05-15T02:13:20.713Z,8.00
2019-05-15T02:14:13.655Z,7.99
2019-05-15T02:15:29.944Z,7.96
2019-05-15T02:16:39.235Z,7.97
2019-05-15T02:17:31.702Z,7.96
2019-05-15T02:18:36.108Z,8.02
2019-05-15T02:19:48.407Z,7.99
2019-05-15T02:20:49.640Z,7.99
2019-05-15T02:21:58.452Z,7.97
2019-05-15T02:23:02.973Z,7.99
2019-05-15T02:24:14.847Z,7.96
2019-05-15T02:25:12.912Z,8.00
2019-05-15T02:26:21.826Z,8.03
2019-05-15T02:27:29.537Z,7.97
2019-05-15T02:28:34.639Z,7.96
2019-05-15T02:29:41.814Z,7.90
2019-05-15T02:30:41.105Z,7.93
2019-05-15T02:31:54.017Z,7.93
2019-05-15T02:32:58.859Z,7.90
2019-05-15T02:33:58.873Z,7.92
2019-05-15T02:35:00.813Z,7.82
2019-05-15T02:36:14.423Z,7.84
2019-05-15T02:37:19.245Z,7.85
2019-05-15T02:38:29.236Z,7.84
2019-05-15T02:39:31.133Z,7.89
2019-05-15T02:40:33.710Z,7.85
2019-05-15T02:41:39.534Z,7.79
2019-05-15T02:42:41.085Z,7.81
2019-05-15T02:43:54.823Z,7.87
2019-05-15T02:44:55.244Z,7.81
2019-05-15T02:46:01.799Z,7.77
2019-05-15T02:47:00.776Z,7.89
2019-05-15T02:48:08.595Z,7.82
2019-05-15T02:49:19.397Z,7.87
2019-05-15T02:50:20.945Z,7.89
2019-05-15T02:51:39.568Z,7.78
2019-05-15T02:52:29.410Z,7.69
2019-05-15T02:53:39.420Z,7.69
2019-05-15T02:54:43.015Z,7.67
2019-05-15T02:55:49.396Z,7.59
2019-05-15T02:56:58.926Z,7.55
2019-05-15T02:57:59.520Z,7.49
2019-05-15T02:59:10.790Z,7.44
2019-05-15T03:00:31.347Z,7.34
2019-05-15T03:01:20.533Z,7.37
2019-05-15T03:02:24.124Z,7.34
2019-05-15T03:03:29.862Z,7.22
2019-05-15T03:04:34.582Z,7.26
2019-05-15T03:05:42.678Z,7.29
2019-05-15T03:06:45.348Z,7.19
2019-05-15T03:07:49.223Z,7.12
2019-05-15T03:09:10.345Z,7.23
2019-05-15T03:09:59.852Z,7.22
2019-05-15T03:11:12.921Z,7.27
2019-05-15T03:12:10.980Z,7.32
2019-05-15T03:13:25.732Z,7.37
2019-05-15T03:14:21.148Z,7.31
2019-05-15T03:15:31.792Z,7.40
2019-05-15T03:16:39.319Z,7.41
2019-05-15T03:17:40.065Z,7.42
2019-05-15T03:18:50.353Z,7.42
2019-05-15T03:19:58.970Z,7.44
2019-05-15T03:21:01.216Z,7.47
2019-05-15T03:22:10.075Z,7.49
2019-05-15T03:23:12.088Z,7.47
2019-05-15T03:24:19.182Z,7.41
2019-05-15T03:25:23.459Z,7.42
2019-05-15T03:26:26.133Z,7.42
2019-05-15T03:27:34.646Z,7.32
2019-05-15T03:28:42.527Z,7.19
2019-05-15T03:29:49.331Z,7.17
2019-05-15T03:31:06.599Z,7.09
2019-05-15T03:32:06.100Z,7.07
2019-05-15T03:33:15.687Z,6.95
2019-05-15T03:34:02.483Z,6.94
2019-05-15T03:35:05.767Z,6.91
2019-05-15T03:36:13.918Z,6.91
2019-05-15T03:37:22.998Z,6.95
2019-05-15T03:38:30.157Z,6.91
2019-05-15T03:39:39.047Z,7.05
2019-05-15T03:40:32.677Z,7.02
2019-05-15T03:41:50.502Z,7.07
2019-05-15T03:42:49.556Z,7.12
2019-05-15T03:43:59.491Z,7.13
2019-05-15T03:44:59.515Z,7.13
2019-05-15T03:46:08.935Z,7.12
2019-05-15T03:47:19.182Z,7.09
2019-05-15T03:48:10.302Z,7.15
2019-05-15T03:49:22.097Z,7.13
2019-05-15T03:50:30.084Z,7.05
2019-05-15T03:51:33.880Z,7.15
2019-05-15T03:52:39.065Z,7.20
2019-05-15T03:53:43.313Z,7.09
2019-05-15T03:54:52.335Z,7.13
2019-05-15T03:55:59.924Z,7.09
2019-05-15T03:57:04.533Z,7.05
2019-05-15T03:58:05.664Z,7.07
2019-05-15T03:59:22.569Z,7.09
2019-05-15T04:00:30.048Z,7.07
2019-05-15T04:01:29.907Z,6.91
2019-05-15T04:02:30.385Z,6.89
2019-05-15T04:03:41.130Z,6.86
2019-05-15T04:04:42.986Z,6.86
2019-05-15T04:06:00.365Z,6.83
2019-05-15T04:06:53.541Z,6.81
2019-05-15T04:08:02.157Z,6.87
2019-05-15T04:09:01.851Z,6.84
2019-05-15T04:10:11.285Z,6.80
2019-05-15T04:11:09.007Z,6.81
2019-05-15T04:12:23.886Z,6.77
2019-05-15T04:13:23.688Z,6.68
2019-05-15T04:14:30.774Z,6.73
2019-05-15T04:15:39.285Z,6.71
2019-05-15T04:16:39.383Z,6.79
2019-05-15T04:17:49.192Z,6.91
2019-05-15T04:18:54.956Z,6.90
2019-05-15T04:19:52.113Z,6.94
2019-05-15T04:21:01.830Z,6.99
2019-05-15T04:22:09.192Z,6.98
2019-05-15T04:23:05.527Z,7.09
2019-05-15T04:24:25.912Z,7.07
2019-05-15T04:25:20.604Z,7.15
2019-05-15T04:26:34.632Z,7.04
2019-05-15T04:27:38.962Z,7.05
2019-05-15T04:28:44.373Z,7.04
2019-05-15T04:29:49.173Z,6.95
2019-05-15T04:30:45.207Z,6.94
2019-05-15T04:32:10.053Z,7.04
2019-05-15T04:33:09.521Z,7.04
2019-05-15T04:34:02.949Z,7.07
2019-05-15T04:35:19.666Z,6.95
2019-05-15T04:36:20.070Z,6.95
2019-05-15T04:37:30.918Z,6.89
2019-05-15T04:38:30.837Z,6.91
2019-05-15T04:39:31.650Z,6.91
2019-05-15T04:40:41.897Z,6.95
2019-05-15T04:41:51.841Z,6.89
2019-05-15T04:42:54.815Z,6.90
2019-05-15T04:44:04.137Z,6.84
2019-05-15T04:45:02.917Z,6.91
2019-05-15T04:46:04.975Z,6.90
2019-05-15T04:47:18.985Z,6.90
2019-05-15T04:48:28.889Z,6.87
2019-05-15T04:49:29.366Z,6.89
2019-05-15T04:50:32.135Z,6.84
2019-05-15T04:51:42.840Z,6.81
2019-05-15T04:52:50.022Z,6.81
2019-05-15T04:53:50.134Z,6.83
2019-05-15T04:54:53.561Z,6.89
2019-05-15T04:55:59.633Z,6.94
2019-05-15T04:56:59.366Z,6.86
2019-05-15T04:58:10.374Z,6.95
2019-05-15T04:59:19.392Z,6.89
2019-05-15T05:00:21.971Z,6.91
2019-05-15T05:01:28.827Z,6.91
2019-05-15T05:02:33.551Z,6.91
2019-05-15T05:03:39.199Z,6.99
2019-05-15T05:04:42.986Z,7.09
2019-05-15T05:05:49.529Z,7.04
2019-05-15T05:06:49.399Z,7.15
2019-05-15T05:07:59.616Z,7.12
2019-05-15T05:09:09.267Z,7.17
2019-05-15T05:10:19.557Z,7.17
2019-05-15T05:11:19.280Z,7.17
2019-05-15T05:12:20.508Z,7.23
2019-05-15T05:13:20.661Z,7.23
2019-05-15T05:14:34.865Z,7.22
2019-05-15T05:15:42.954Z,7.32
2019-05-15T05:16:48.807Z,7.37
2019-05-15T05:17:49.086Z,7.38
2019-05-15T05:18:59.348Z,7.35
2019-05-15T05:20:04.181Z,7.45
2019-05-15T05:21:02.248Z,7.44
2019-05-15T05:22:07.703Z,7.53
2019-05-15T05:23:21.813Z,7.62
2019-05-15T05:24:27.899Z,7.62
2019-05-15T05:25:27.910Z,7.71
2019-05-15T05:26:29.353Z,7.67
2019-05-15T05:27:31.053Z,7.74
2019-05-15T05:28:37.795Z,7.89
2019-05-15T05:29:42.231Z,7.84
2019-05-15T05:30:58.681Z,7.89
2019-05-15T05:32:05.184Z,7.93
2019-05-15T05:33:05.100Z,7.97
2019-05-15T05:34:04.480Z,8.03
2019-05-15T05:35:18.493Z,7.99
2019-05-15T05:36:22.330Z,8.12
2019-05-15T05:37:28.080Z,8.17
2019-05-15T05:38:29.185Z,8.14
2019-05-15T05:39:39.396Z,8.17
2019-05-15T05:40:49.322Z,8.21
2019-05-15T05:41:44.464Z,8.18
2019-05-15T05:42:56.765Z,8.30
2019-05-15T05:43:53.691Z,8.33
2019-05-15T05:45:04.868Z,8.39
2019-05-15T05:46:02.308Z,8.37
2019-05-15T05:47:18.303Z,8.42
2019-05-15T05:48:19.100Z,8.60
2019-05-15T05:49:21.074Z,8.48
2019-05-15T05:50:24.966Z,8.65
2019-05-15T05:51:38.524Z,8.79
2019-05-15T05:52:46.280Z,8.81
2019-05-15T05:53:42.918Z,8.83
2019-05-15T05:54:50.798Z,8.96
2019-05-15T05:55:55.005Z,8.96
2019-05-15T05:57:08.941Z,8.99
2019-05-15T05:58:08.740Z,9.12
2019-05-15T05:59:18.460Z,9.21
2019-05-15T06:00:21.758Z,9.25
2019-05-15T06:01:28.150Z,9.27
2019-05-15T06:02:42.487Z,9.38
2019-05-15T06:03:38.623Z,9.38
2019-05-15T06:04:43.595Z,9.40
2019-05-15T06:05:52.822Z,9.49
2019-05-15T06:07:07.048Z,9.60
2019-05-15T06:08:02.560Z,9.56
2019-05-15T06:09:14.142Z,9.64
2019-05-15T06:10:29.291Z,9.67
2019-05-15T06:11:27.694Z,9.75
2019-05-15T06:12:39.864Z,9.79
2019-05-15T06:13:40.897Z,9.93
2019-05-15T06:14:50.840Z,9.91
2019-05-15T06:16:03.753Z,10.03
2019-05-15T06:17:01.710Z,10.04
2019-05-15T06:18:15.847Z,10.10
2019-05-15T06:19:18.050Z,10.06
2019-05-15T06:20:28.122Z,10.12
2019-05-15T06:21:53.380Z,10.10
2019-05-15T06:22:38.939Z,10.24
2019-05-15T06:23:44.793Z,10.19
2019-05-15T06:24:51.313Z,10.32
2019-05-15T06:26:14.362Z,10.32
2019-05-15T06:27:00.745Z,10.39
2019-05-15T06:28:32.191Z,10.42
2019-05-15T06:29:28.410Z,10.51
2019-05-15T06:30:20.091Z,10.56
2019-05-15T06:31:59.347Z,10.59
2019-05-15T06:33:04.424Z,10.58
2019-05-15T06:33:53.631Z,10.55
2019-05-15T06:35:14.014Z,10.58
2019-05-15T06:37:08.284Z,10.58
2019-05-15T06:38:14.858Z,10.65
2019-05-15T06:38:59.083Z,10.70
2019-05-15T06:40:28.868Z,10.73
2019-05-15T06:41:38.836Z,10.76
2019-05-15T06:42:30.648Z,10.73
2019-05-15T06:43:19.767Z,10.86
2019-05-15T06:44:32.404Z,10.84
2019-05-15T06:45:49.716Z,10.81
2019-05-15T06:46:39.688Z,10.89
2019-05-15T06:48:03.962Z,10.92
2019-05-15T06:49:13.082Z,11.02
2019-05-15T06:50:00.604Z,10.89
2019-05-15T06:51:03.481Z,10.88
2019-05-15T06:51:49.348Z,10.95
2019-05-15T06:53:14.033Z,11.01
2019-05-15T06:54:13.937Z,11.03
2019-05-15T06:55:18.291Z,10.99
2019-05-15T06:56:19.994Z,11.03
2019-05-15T06:57:35.463Z,11.10
2019-05-15T06:58:42.740Z,11.13
2019-05-15T06:59:53.292Z,11.09
2019-05-15T07:00:51.869Z,11.09
2019-05-15T07:01:53.820Z,11.21
2019-05-15T07:02:53.724Z,11.16
2019-05-15T07:03:58.954Z,11.19
2019-05-15T07:05:18.329Z,11.21
2019-05-15T07:06:09.221Z,11.20
2019-05-15T07:07:38.169Z,11.27
2019-05-15T07:08:18.642Z,11.19
2019-05-15T07:09:29.911Z,11.27
2019-05-15T07:10:41.389Z,11.29
2019-05-15T07:11:32.792Z,11.31
2019-05-15T07:12:42.425Z,11.27
2019-05-15T07:13:40.588Z,11.34
2019-05-15T07:14:58.466Z,11.38
2019-05-15T07:16:14.805Z,11.32
2019-05-15T07:17:14.604Z,11.41
2019-05-15T07:18:20.250Z,11.41
2019-05-15T07:19:21.179Z,11.36
2019-05-15T07:20:18.468Z,11.39
2019-05-15T07:21:39.416Z,11.38
2019-05-15T07:22:41.784Z,11.38
2019-05-15T07:23:38.681Z,11.36
2019-05-15T07:24:47.811Z,11.46
2019-05-15T07:25:52.345Z,11.46
2019-05-15T07:26:55.630Z,11.52
2019-05-15T07:28:09.970Z,11.54
2019-05-15T07:29:07.842Z,11.49
2019-05-15T07:30:18.673Z,11.50
2019-05-15T07:31:23.200Z,11.52
2019-05-15T07:32:24.848Z,11.53
2019-05-15T07:33:35.854Z,11.52
2019-05-15T07:34:34.793Z,11.59
2019-05-15T07:35:45.451Z,11.57
2019-05-15T07:36:44.022Z,11.68
2019-05-15T07:38:03.895Z,11.62
2019-05-15T07:38:58.016Z,11.67
2019-05-15T07:39:59.068Z,11.70
2019-05-15T07:41:11.204Z,11.65
2019-05-15T07:42:12.524Z,11.67
2019-05-15T07:43:17.945Z,11.59
2019-05-15T07:44:22.777Z,11.74
2019-05-15T07:45:19.661Z,11.71
2019-05-15T07:46:38.218Z,11.82
2019-05-15T07:47:31.608Z,11.74
2019-05-15T07:48:44.661Z,11.78
2019-05-15T07:50:01.007Z,11.86
2019-05-15T07:50:51.596Z,11.82
2019-05-15T07:52:00.309Z,11.87
2019-05-15T07:53:19.481Z,11.93
2019-05-15T07:54:10.459Z,11.87
2019-05-15T07:55:18.328Z,11.94
2019-05-15T07:56:21.128Z,11.99
2019-05-15T07:57:32.094Z,11.97
2019-05-15T07:58:27.738Z,11.97
2019-05-15T07:59:45.114Z,12.05
2019-05-15T08:00:42.968Z,11.96
2019-05-15T08:01:51.669Z,12.08
2019-05-15T08:03:01.098Z,12.05
2019-05-15T08:04:05.125Z,12.09
2019-05-15T08:05:03.159Z,12.12
2019-05-15T08:06:10.167Z,12.16
2019-05-15T08:07:23.680Z,12.16
2019-05-15T08:08:22.943Z,12.21
2019-05-15T08:09:29.095Z,12.27
2019-05-15T08:10:34.632Z,12.30
2019-05-15T08:11:48.853Z,12.30
2019-05-15T08:12:39.062Z,12.30
2019-05-15T08:13:50.729Z,12.33
2019-05-15T08:14:50.549Z,12.41
2019-05-15T08:16:01.805Z,12.48
2019-05-15T08:17:17.922Z,12.41
2019-05-15T08:18:12.965Z,12.38
2019-05-15T08:19:18.398Z,12.52
2019-05-15T08:20:25.787Z,12.57
2019-05-15T08:21:29.228Z,12.60
2019-05-15T08:22:38.291Z,12.64
2019-05-15T08:23:43.730Z,12.62
2019-05-15T08:24:43.634Z,12.75
2019-05-15T08:25:48.840Z,12.70
2019-05-15T08:26:48.605Z,12.78
2019-05-15T08:27:58.728Z,12.77
2019-05-15T08:29:08.854Z,12.75
2019-05-15T08:30:13.162Z,12.78
2019-05-15T08:31:29.514Z,12.79
2019-05-15T08:32:22.493Z,12.85
2019-05-15T08:33:21.270Z,12.84
2019-05-15T08:34:38.312Z,12.82
2019-05-15T08:35:48.839Z,12.85
2019-05-15T08:36:52.524Z,12.82
2019-05-15T08:37:50.891Z,12.88
2019-05-15T08:38:59.507Z,12.88
2019-05-15T08:40:08.490Z,12.92
2019-05-15T08:41:00.643Z,12.93
2019-05-15T08:42:07.895Z,12.99
2019-05-15T08:43:22.877Z,12.99
2019-05-15T08:44:15.109Z,12.95
2019-05-15T08:45:24.015Z,13.00
2019-05-15T08:46:38.784Z,13.02
2019-05-15T08:47:35.088Z,13.04
2019-05-15T08:48:38.416Z,13.14
2019-05-15T08:50:08.796Z,13.03
2019-05-15T08:50:57.834Z,13.07
2019-05-15T08:52:01.955Z,13.06
2019-05-15T08:53:02.877Z,13.09
2019-05-15T08:54:05.032Z,13.18
2019-05-15T08:55:16.724Z,13.15
2019-05-15T08:56:20.924Z,13.14
2019-05-15T08:57:34.038Z,13.18
2019-05-15T08:58:29.739Z,13.21
2019-05-15T08:59:38.075Z,13.18
2019-05-15T09:00:44.318Z,13.24
2019-05-15T09:01:55.265Z,13.30
2019-05-15T09:02:58.538Z,13.33
2019-05-15T09:04:02.857Z,13.25
2019-05-15T09:05:08.267Z,13.33
2019-05-15T09:06:09.332Z,13.30
2019-05-15T09:07:13.627Z,13.41
2019-05-15T09:08:25.300Z,13.46
2019-05-15T09:09:28.783Z,13.47
2019-05-15T09:10:38.426Z,13.43
2019-05-15T09:11:49.184Z,13.46
2019-05-15T09:12:39.663Z,13.55
2019-05-15T09:13:54.431Z,13.51
2019-05-15T09:14:53.407Z,13.54
2019-05-15T09:16:11.228Z,13.61
2019-05-15T09:17:10.925Z,13.65
2019-05-15T09:18:15.029Z,13.67
2019-05-15T09:19:28.196Z,13.63
2019-05-15T09:20:21.294Z,13.65
2019-05-15T09:21:28.669Z,13.58
2019-05-15T09:22:43.622Z,13.62
2019-05-15T09:23:51.924Z,13.73
2019-05-15T09:24:56.029Z,13.67
2019-05-15T09:25:57.989Z,13.69
2019-05-15T09:26:59.367Z,13.83
2019-05-15T09:28:00.349Z,13.81
2019-05-15T09:29:04.462Z,13.87
2019-05-15T09:30:19.621Z,13.94
2019-05-15T09:31:24.841Z,13.91
2019-05-15T09:32:34.578Z,13.94
2019-05-15T09:33:44.314Z,13.84
2019-05-15T09:34:54.193Z,13.92
2019-05-15T09:35:39.318Z,14.06
2019-05-15T09:36:45.095Z,14.01
2019-05-15T09:38:21.615Z,13.99
2019-05-15T09:39:18.235Z,14.14
2019-05-15T09:40:38.823Z,14.13
2019-05-15T09:41:08.852Z,14.16
2019-05-15T09:42:40.588Z,14.10
2019-05-15T09:43:32.913Z,14.13
2019-05-15T09:45:25.860Z,14.10
2019-05-15T09:46:21.365Z,14.10
2019-05-15T09:47:33.349Z,14.10
2019-05-15T09:48:14.644Z,14.20
2019-05-15T09:49:25.382Z,14.21
2019-05-15T09:50:23.847Z,14.25
2019-05-15T09:51:32.260Z,14.21
2019-05-15T09:52:45.468Z,14.31
2019-05-15T09:53:30.627Z,14.29
2019-05-15T09:54:49.050Z,14.37
2019-05-15T09:55:59.847Z,14.35
2019-05-15T09:57:13.246Z,14.37
2019-05-15T09:58:30.155Z,14.39
2019-05-15T09:59:08.762Z,14.43
2019-05-15T09:59:58.617Z,14.38
2019-05-15T10:01:28.330Z,14.49
2019-05-15T10:02:13.693Z,14.54
2019-05-15T10:03:29.371Z,14.53
2019-05-15T10:04:38.943Z,14.60
2019-05-15T10:05:44.940Z,14.54
2019-05-15T10:06:32.255Z,14.60
2019-05-15T10:07:47.522Z,14.65
2019-05-15T10:08:53.568Z,14.62
2019-05-15T10:10:11.187Z,14.68
2019-05-15T10:10:59.191Z,14.71
2019-05-15T10:12:09.976Z,14.78
2019-05-15T10:13:09.670Z,14.81
2019-05-15T10:14:20.441Z,14.74
2019-05-15T10:15:34.872Z,14.83
2019-05-15T10:16:27.919Z,14.86
2019-05-15T10:17:43.696Z,14.99
2019-05-15T10:18:38.663Z,14.93
2019-05-15T10:19:45.451Z,15.09
2019-05-15T10:20:49.347Z,15.03
2019-05-15T10:22:00.311Z,15.17
2019-05-15T10:23:08.586Z,15.17
2019-05-15T10:24:12.408Z,15.23
2019-05-15T10:25:09.756Z,15.23
2019-05-15T10:26:32.490Z,15.28
2019-05-15T10:27:25.842Z,15.33
2019-05-15T10:28:33.736Z,15.39
2019-05-15T10:29:28.083Z,15.42
2019-05-15T10:30:39.356Z,15.45
2019-05-15T10:31:50.548Z,15.56
2019-05-15T10:32:48.611Z,15.52
2019-05-15T10:33:54.354Z,15.54
2019-05-15T10:34:59.587Z,15.64
2019-05-15T10:36:00.618Z,15.59
2019-05-15T10:37:10.860Z,15.66
2019-05-15T10:38:23.667Z,15.78
2019-05-15T10:39:38.370Z,15.70
2019-05-15T10:40:33.612Z,15.81
2019-05-15T10:41:39.352Z,15.81
2019-05-15T10:42:40.595Z,15.86
2019-05-15T10:43:55.940Z,15.84
2019-05-15T10:44:51.359Z,15.92
2019-05-15T10:46:03.250Z,15.84
2019-05-15T10:47:04.987Z,15.99
2019-05-15T10:48:09.269Z,16.06
2019-05-15T10:49:30.398Z,16.09
2019-05-15T10:50:33.169Z,16.03
2019-05-15T10:51:29.696Z,16.09
2019-05-15T10:52:33.080Z,16.15
2019-05-15T10:53:44.458Z,16.22
2019-05-15T10:55:02.791Z,16.15
2019-05-15T10:55:59.510Z,16.30
2019-05-15T10:57:00.411Z,16.30
2019-05-15T10:58:01.701Z,16.18
2019-05-15T10:59:11.729Z,16.30
2019-05-15T11:00:20.853Z,16.25
2019-05-15T11:01:34.984Z,16.31
2019-05-15T11:02:25.159Z,16.40
2019-05-15T11:03:34.732Z,16.37
2019-05-15T11:04:32.035Z,16.38
2019-05-15T11:05:54.990Z,16.48
2019-05-15T11:06:49.056Z,16.56
2019-05-15T11:07:48.362Z,16.67
2019-05-15T11:08:58.294Z,16.71
2019-05-15T11:10:30.949Z,16.71
2019-05-15T11:12:03.213Z,16.74
2019-05-15T11:12:58.227Z,16.70
2019-05-15T11:14:38.969Z,16.65
2019-05-15T11:15:10.682Z,16.68
2019-05-15T11:16:39.256Z,16.67
2019-05-15T11:17:31.632Z,16.81
2019-05-15T11:19:36.226Z,16.86
2019-05-15T11:20:41.127Z,16.90
2019-05-15T11:21:30.424Z,16.86
2019-05-15T11:23:10.153Z,16.83
2019-05-15T11:24:08.584Z,16.88
2019-05-15T11:25:40.278Z,16.86
2019-05-15T11:26:56.013Z,16.95
2019-05-15T11:28:09.468Z,16.93
2019-05-15T11:28:52.175Z,17.00
2019-05-15T11:30:15.017Z,17.07
2019-05-15T11:31:15.426Z,17.11
2019-05-15T11:32:14.410Z,17.07
2019-05-15T11:33:29.137Z,17.11
2019-05-15T11:34:18.385Z,17.13
2019-05-15T11:35:56.810Z,17.15
2019-05-15T11:36:38.566Z,17.15
2019-05-15T11:37:32.569Z,17.22
2019-05-15T11:38:33.191Z,17.26
2019-05-15T11:39:45.370Z,17.28
2019-05-15T11:40:57.991Z,17.26
2019-05-15T11:41:54.714Z,17.38
2019-05-15T11:42:59.645Z,17.36
2019-05-15T11:44:03.845Z,17.36
2019-05-15T11:45:05.692Z,17.44
2019-05-15T11:46:12.767Z,17.38
2019-05-15T11:47:21.783Z,17.44
2019-05-15T11:48:22.715Z,17.51
2019-05-15T11:49:29.079Z,17.35
2019-05-15T11:50:21.188Z,17.38
2019-05-15T11:51:39.833Z,17.40
2019-05-15T11:52:44.962Z,17.43
2019-05-15T11:53:53.055Z,17.38
2019-05-15T11:54:51.941Z,17.43
2019-05-15T11:55:48.678Z,17.47
2019-05-15T11:57:08.948Z,17.51
2019-05-15T11:58:09.592Z,17.53
2019-05-15T11:59:09.268Z,17.55
2019-05-15T12:00:26.789Z,17.59
2019-05-15T12:01:38.382Z,17.64
2019-05-15T12:02:21.070Z,17.51
2019-05-15T12:03:42.173Z,17.54
2019-05-15T12:04:34.033Z,17.51
2019-05-15T12:06:02.816Z,17.36
2019-05-15T12:06:59.753Z,17.43
2019-05-15T12:08:04.315Z,17.54
2019-05-15T12:09:02.183Z,17.54
2019-05-15T12:10:18.336Z,17.64
2019-05-15T12:11:26.922Z,17.55
2019-05-15T12:12:18.018Z,17.62
2019-05-15T12:13:25.338Z,17.64
2019-05-15T12:14:34.768Z,17.62
2019-05-15T12:15:48.373Z,17.51
2019-05-15T12:16:39.778Z,17.51
2019-05-15T12:17:44.313Z,17.53
2019-05-15T12:18:49.446Z,17.40
2019-05-15T12:20:01.370Z,17.40
2019-05-15T12:21:07.884Z,17.40
2019-05-15T12:22:13.429Z,17.48
2019-05-15T12:23:09.948Z,17.40
2019-05-15T12:24:20.712Z,17.43
2019-05-15T12:25:28.336Z,17.36
2019-05-15T12:26:29.629Z,17.41
2019-05-15T12:27:40.722Z,17.35
2019-05-15T12:28:40.474Z,17.47
2019-05-15T12:29:51.975Z,17.51
2019-05-15T12:31:01.610Z,17.55
2019-05-15T12:31:58.886Z,17.54
2019-05-15T12:33:05.205Z,17.48
2019-05-15T12:34:05.005Z,17.69
2019-05-15T12:35:11.873Z,17.55
2019-05-15T12:36:42.602Z,17.54
2019-05-15T12:37:29.909Z,17.55
2019-05-15T12:38:29.275Z,17.44
2019-05-15T12:39:34.941Z,17.53
2019-05-15T13:00:18.661Z,17.79
2019-05-15T13:01:35.814Z,17.84
2019-05-15T13:02:32.331Z,17.87
2019-05-15T13:03:39.611Z,17.82
2019-05-15T13:04:42.893Z,17.85
2019-05-15T13:05:44.437Z,17.92
2019-05-15T13:07:10.062Z,17.84
2019-05-15T13:08:01.771Z,17.99
2019-05-15T13:09:09.646Z,17.89
2019-05-15T13:10:12.528Z,18.02
2019-05-15T13:11:18.369Z,18.03
2019-05-15T13:12:21.539Z,17.99
2019-05-15T13:13:24.831Z,18.04
2019-05-15T13:14:33.852Z,18.04
2019-05-15T13:15:35.086Z,18.07
2019-05-15T13:16:48.194Z,18.09
2019-05-15T13:17:52.414Z,18.12
2019-05-15T13:18:56.101Z,18.17
2019-05-15T13:20:03.169Z,18.10
2019-05-15T13:21:02.972Z,17.97
2019-05-15T13:22:24.529Z,17.99
2019-05-15T13:23:10.053Z,18.03
2019-05-15T13:24:19.238Z,18.07
2019-05-15T13:25:21.759Z,18.13
2019-05-15T13:26:38.293Z,18.15
2019-05-15T13:27:35.165Z,18.17
2019-05-15T13:28:45.522Z,18.17
2019-05-15T13:30:00.266Z,18.19
2019-05-15T13:30:49.443Z,18.15
2019-05-15T13:31:58.627Z,18.15
2019-05-15T13:33:09.681Z,18.17
2019-05-15T13:34:10.228Z,18.17
2019-05-15T13:35:14.133Z,18.10
2019-05-15T13:36:22.436Z,18.02
2019-05-15T13:37:31.343Z,17.97
2019-05-15T13:38:38.000Z,18.03
2019-05-15T13:39:41.610Z,18.02
2019-05-15T13:40:43.959Z,18.06
2019-05-15T13:41:58.412Z,18.03
2019-05-15T13:42:58.860Z,18.06
2019-05-15T13:43:58.328Z,18.04
2019-05-15T13:45:13.636Z,18.03
2019-05-15T13:46:22.085Z,17.99
2019-05-15T13:47:20.777Z,17.88
2019-05-15T13:48:19.894Z,17.91
2019-05-15T13:49:33.287Z,17.94
2019-05-15T13:50:34.811Z,17.92
2019-05-15T13:51:44.036Z,17.92
2019-05-15T13:52:45.062Z,17.87
2019-05-15T13:53:49.148Z,17.92
2019-05-15T13:55:08.378Z,17.99
2019-05-15T13:55:59.018Z,18.02
2019-05-15T13:57:09.062Z,18.02
2019-05-15T13:58:10.436Z,17.91
2019-05-15T13:59:19.930Z,17.88
2019-05-15T14:00:20.032Z,18.00
2019-05-15T14:01:25.373Z,18.00
2019-05-15T14:02:38.950Z,18.09
2019-05-15T14:03:38.929Z,18.02
2019-05-15T14:04:41.191Z,17.82
2019-05-15T14:05:52.325Z,17.95
2019-05-15T14:06:59.496Z,17.87
2019-05-15T14:08:03.397Z,17.88
2019-05-15T14:09:04.223Z,17.99
2019-05-15T14:10:18.143Z,18.03
2019-05-15T14:11:12.221Z,17.89
2019-05-15T14:12:22.367Z,17.94
2019-05-15T14:13:28.564Z,18.03
2019-05-15T14:14:38.505Z,18.02
2019-05-15T14:15:40.413Z,18.02
2019-05-15T14:16:50.964Z,17.99
2019-05-15T14:17:50.665Z,17.92
2019-05-15T14:18:51.593Z,17.95
2019-05-15T14:20:04.297Z,18.00
2019-05-15T14:21:04.920Z,18.02
2019-05-15T14:22:24.587Z,17.87
2019-05-15T14:23:20.909Z,17.95
2019-05-15T14:24:33.511Z,18.09
2019-05-15T14:25:27.884Z,17.99
2019-05-15T14:26:29.949Z,18.04
2019-05-15T14:27:35.780Z,18.02
2019-05-15T14:28:47.941Z,18.04
2019-05-15T14:29:58.129Z,18.09
2019-05-15T14:30:59.684Z,18.04
2019-05-15T14:32:01.727Z,18.04
2019-05-15T14:33:09.937Z,18.09
2019-05-15T14:34:09.112Z,17.91
2019-05-15T14:35:22.833Z,18.02
2019-05-15T14:36:23.772Z,18.06
2019-05-15T14:37:31.857Z,17.87
2019-05-15T14:38:32.891Z,17.97